Time;durP1;ratioP1;P1;durP2;ratioP2;P2;SDS_P1;SDS_P2;PMS_P1;PMS_P2;Temp;Humidity;BMP_temperature;BMP_pressure;BME280_temperature;BME280_humidity;BME280_pressure;Samples;Min_cycle;Max_cycle;Signal;HPM_P1;HPM_P2
2022/01/26 00:07:18;;;;;;;18.80;10.95;;;;;;;;;;4971621;28;19930;-69
2022/01/26 00:09:44;;;;;;;18.85;11.60;;;;;;;;;;4968647;28;20056;-69
2022/01/26 00:12:10;;;;;;;16.63;10.82;;;;;;;;;;4970844;28;20152;-69
2022/01/26 00:14:42;;;;;;;17.52;11.02;;;;;;;;;;4970360;28;20086;-69
2022/01/26 00:17:10;;;;;;;19.15;11.00;;;;;;;;;;4954586;28;20213;-69
2022/01/26 00:22:55;;;;;;;17.08;10.10;;;;;;;;;;4971280;28;20642;-69
2022/01/26 00:28:31;;;;;;;18.25;10.82;;;;;;;;;;4970782;28;20054;-69
2022/01/26 00:38:50;;;;;;;17.15;10.98;;;;;;;;;;4982283;28;20038;-69
2022/01/26 00:41:19;;;;;;;17.63;10.63;;;;;;;;;;4981252;28;20050;-69
2022/01/26 00:43:50;;;;;;;16.67;10.60;;;;;;;;;;4968835;28;20461;-69
2022/01/26 00:46:17;;;;;;;17.27;11.40;;;;;;;;;;4961955;28;20480;-69
2022/01/26 00:48:43;;;;;;;15.65;10.38;;;;;;;;;;4962304;28;20057;-69
2022/01/26 00:51:11;;;;;;;19.05;11.18;;;;;;;;;;4962336;28;20050;-69
2022/01/26 00:53:42;;;;;;;17.25;10.48;;;;;;;;;;4962380;28;20702;-69
2022/01/26 00:56:08;;;;;;;19.02;11.32;;;;;;;;;;4962316;28;20159;-69
2022/01/26 00:58:35;;;;;;;17.30;10.07;;;;;;;;;;4946428;28;20141;-69
2022/01/26 01:01:02;;;;;;;17.23;10.82;;;;;;;;;;4945931;28;20148;-69
2022/01/26 01:03:30;;;;;;;17.20;10.85;;;;;;;;;;4961982;28;20687;-69
2022/01/26 01:06:01;;;;;;;17.70;11.20;;;;;;;;;;4961797;28;20053;-69
2022/01/26 01:08:27;;;;;;;17.98;11.05;;;;;;;;;;4962829;28;20047;-70
2022/01/26 01:10:55;;;;;;;17.98;10.98;;;;;;;;;;4945546;28;20126;-69
2022/01/26 01:13:29;;;;;;;16.15;10.10;;;;;;;;;;4962035;28;20047;-69
2022/01/26 01:15:55;;;;;;;17.15;10.43;;;;;;;;;;4962456;28;20634;-70
2022/01/26 01:18:28;;;;;;;16.85;10.10;;;;;;;;;;4945922;28;20047;-69
2022/01/26 01:21:20;;;;;;;17.50;11.27;;;;;;;;;;4961952;28;20130;-69
2022/01/26 01:31:46;;;;;;;16.05;10.13;;;;;;;;;;4977178;28;20971;-69
2022/01/26 01:34:13;;;;;;;17.75;10.80;;;;;;;;;;4953223;28;20046;-69
2022/01/26 01:36:42;;;;;;;16.92;10.73;;;;;;;;;;4968833;28;20038;-68
2022/01/26 01:39:09;;;;;;;16.95;9.50;;;;;;;;;;4985731;28;20072;-69
2022/01/26 01:41:36;;;;;;;19.55;11.50;;;;;;;;;;4984569;28;20039;-69
2022/01/26 01:44:04;;;;;;;19.73;12.18;;;;;;;;;;4985212;28;20054;-69
2022/01/26 01:46:30;;;;;;;17.25;10.80;;;;;;;;;;4984242;28;20080;-69
2022/01/26 01:48:56;;;;;;;21.13;11.77;;;;;;;;;;4968902;28;20616;-69
2022/01/26 01:51:29;;;;;;;18.00;11.52;;;;;;;;;;4967502;28;20051;-69
2022/01/26 01:53:55;;;;;;;17.38;10.50;;;;;;;;;;4969286;28;20058;-69
2022/01/26 01:56:24;;;;;;;16.92;10.65;;;;;;;;;;4984671;28;20101;-69
2022/01/26 01:58:50;;;;;;;19.73;12.43;;;;;;;;;;4985305;28;20049;-69
2022/01/26 02:01:17;;;;;;;20.65;12.63;;;;;;;;;;4984525;28;20045;-69
2022/01/26 02:03:42;;;;;;;19.30;11.50;;;;;;;;;;4985074;28;20101;-69
2022/01/26 02:06:08;;;;;;;18.50;11.20;;;;;;;;;;4984465;28;20038;-68
2022/01/26 02:08:34;;;;;;;17.73;10.77;;;;;;;;;;4984722;28;20053;-69
2022/01/26 02:11:01;;;;;;;17.50;11.15;;;;;;;;;;4984466;28;20057;-69
2022/01/26 02:13:32;;;;;;;16.73;11.15;;;;;;;;;;4985209;28;20508;-68
2022/01/26 02:56:16;;;;;;;19.58;12.25;;;;;;;;;;4983387;28;20134;-70
2022/01/26 03:01:31;;;;;;;20.30;12.85;;;;;;;;;;4982983;28;20053;-69
2022/01/26 03:04:12;;;;;;;18.35;12.00;;;;;;;;;;4983108;28;20049;-69
2022/01/26 03:07:38;;;;;;;18.73;12.32;;;;;;;;;;4974842;28;20042;-69
2022/01/26 03:09:29;;;;;;;19.25;11.45;;;;;;;;;;4976145;28;20053;-69
2022/01/26 03:11:57;;;;;;;18.33;11.48;;;;;;;;;;4982940;28;20080;-69
2022/01/26 03:16:56;;;;;;;19.25;11.45;;;;;;;;;;4958911;28;20082;-69
2022/01/26 03:19:37;;;;;;;20.58;13.00;;;;;;;;;;4959525;28;20046;-69
2022/01/26 03:30:20;;;;;;;18.25;10.88;;;;;;;;;;4983375;28;20137;-69
2022/01/26 03:35:50;;;;;;;;;;;;;;;;;;4984055;28;20042;-69
2022/01/26 03:38:38;;;;;;;19.23;11.05;;;;;;;;;;4962970;28;19925;-69
2022/01/26 03:41:33;;;;;;;19.33;10.85;;;;;;;;;;4965784;28;20052;-67
2022/01/26 03:44:00;;;;;;;18.73;11.75;;;;;;;;;;4982845;28;20449;-69
2022/01/26 03:46:26;;;;;;;18.08;10.23;;;;;;;;;;4965760;28;20480;-69
2022/01/26 03:48:52;;;;;;;19.92;12.45;;;;;;;;;;4982836;28;20210;-69
2022/01/26 03:51:18;;;;;;;19.02;11.68;;;;;;;;;;4981797;28;20166;-69
2022/01/26 03:53:44;;;;;;;18.10;11.52;;;;;;;;;;4966470;28;20042;-69
2022/01/26 03:56:11;;;;;;;19.80;11.68;;;;;;;;;;4966219;28;20042;-69
2022/01/26 03:58:37;;;;;;;20.52;11.77;;;;;;;;;;4983761;28;20047;-68
2022/01/26 04:01:03;;;;;;;19.27;11.32;;;;;;;;;;4981376;28;20061;-68
2022/01/26 04:03:29;;;;;;;16.77;11.05;;;;;;;;;;4983029;28;20655;-69
2022/01/26 04:05:55;;;;;;;18.38;11.45;;;;;;;;;;4982220;28;20049;-69
2022/01/26 04:08:28;;;;;;;17.88;11.35;;;;;;;;;;4981995;28;20042;-68
2022/01/26 04:13:21;;;;;;;17.70;11.52;;;;;;;;;;4982888;28;20137;-69
2022/01/26 04:15:47;;;;;;;17.63;11.43;;;;;;;;;;4981626;28;20058;-68
2022/01/26 04:18:18;;;;;;;19.90;11.80;;;;;;;;;;4966048;28;20137;-68
2022/01/26 04:20:48;;;;;;;18.45;11.13;;;;;;;;;;4966387;28;20580;-68
2022/01/26 04:23:17;;;;;;;18.23;11.40;;;;;;;;;;4981866;28;20628;-68
2022/01/26 04:25:45;;;;;;;19.42;12.00;;;;;;;;;;4982344;28;20108;-68
2022/01/26 04:28:14;;;;;;;19.20;12.02;;;;;;;;;;4982106;28;20109;-67
2022/01/26 04:30:40;;;;;;;17.90;11.15;;;;;;;;;;4982897;28;20495;-69
2022/01/26 04:33:07;;;;;;;17.88;11.18;;;;;;;;;;4964704;28;20074;-68
2022/01/26 04:35:33;;;;;;;16.88;10.93;;;;;;;;;;4982141;28;20116;-68
2022/01/26 04:40:36;;;;;;;19.00;11.65;;;;;;;;;;4982157;28;20130;-67
2022/01/26 04:43:08;;;;;;;17.48;11.05;;;;;;;;;;4981015;28;20056;-68
2022/01/26 04:45:34;;;;;;;18.67;11.43;;;;;;;;;;4981807;28;20130;-68
2022/01/26 04:48:00;;;;;;;19.35;12.25;;;;;;;;;;4980783;28;20078;-68
2022/01/26 04:50:26;;;;;;;17.70;10.60;;;;;;;;;;4981935;28;20042;-69
2022/01/26 04:52:52;;;;;;;19.73;11.20;;;;;;;;;;4980560;28;20048;-69
2022/01/26 04:55:18;;;;;;;19.42;11.93;;;;;;;;;;4981965;28;20082;-68
2022/01/26 04:57:44;;;;;;;18.48;11.27;;;;;;;;;;4964956;28;20046;-68
2022/01/26 05:00:10;;;;;;;20.08;11.98;;;;;;;;;;4981783;28;20038;-69
2022/01/26 05:02:36;;;;;;;17.83;11.25;;;;;;;;;;4981554;28;20046;-68
2022/01/26 05:05:02;;;;;;;17.88;11.90;;;;;;;;;;4981737;28;20129;-68
2022/01/26 05:07:28;;;;;;;18.48;11.60;;;;;;;;;;4980549;28;20042;-68
2022/01/26 05:09:54;;;;;;;19.17;11.88;;;;;;;;;;4981889;28;20049;-71
2022/01/26 05:12:20;;;;;;;17.30;10.93;;;;;;;;;;4980837;28;20160;-68
2022/01/26 05:14:48;;;;;;;18.85;11.90;;;;;;;;;;4981569;28;20240;-68
2022/01/26 05:17:15;;;;;;;18.70;12.35;;;;;;;;;;4964556;28;20452;-69
2022/01/26 05:19:41;;;;;;;17.40;11.00;;;;;;;;;;4965771;28;20050;-68
2022/01/26 05:22:07;;;;;;;18.08;11.20;;;;;;;;;;4980150;28;20046;-69
2022/01/26 05:24:33;;;;;;;18.77;11.48;;;;;;;;;;4981634;28;20149;-68
2022/01/26 05:26:59;;;;;;;21.52;11.13;;;;;;;;;;4980672;28;20193;-68
2022/01/26 05:29:25;;;;;;;17.25;11.00;;;;;;;;;;4981387;28;20562;-68
2022/01/26 05:31:51;;;;;;;18.23;12.00;;;;;;;;;;4964214;28;20059;-69
2022/01/26 05:34:17;;;;;;;18.70;11.38;;;;;;;;;;4965274;28;20070;-69
2022/01/26 05:36:43;;;;;;;18.98;10.93;;;;;;;;;;4980456;28;20496;-69
2022/01/26 05:39:09;;;;;;;18.55;10.88;;;;;;;;;;4965134;28;20068;-69
2022/01/26 05:41:38;;;;;;;17.83;11.68;;;;;;;;;;4980504;28;20129;-69
2022/01/26 05:44:04;;;;;;;17.10;11.27;;;;;;;;;;4981357;28;20496;-69
2022/01/26 05:46:37;;;;;;;17.80;10.57;;;;;;;;;;4979787;28;20643;-68
2022/01/26 05:49:03;;;;;;;20.02;11.52;;;;;;;;;;4981976;28;20117;-68
2022/01/26 05:51:32;;;;;;;17.67;11.10;;;;;;;;;;4974876;28;20153;-68
2022/01/26 05:53:58;;;;;;;18.80;11.63;;;;;;;;;;4982980;28;20042;-68
2022/01/26 05:56:24;;;;;;;16.75;10.70;;;;;;;;;;4975247;28;20625;-68
2022/01/26 05:58:50;;;;;;;18.45;11.05;;;;;;;;;;4980606;28;20046;-68
2022/01/26 06:01:18;;;;;;;18.80;10.93;;;;;;;;;;4980705;28;20050;-68
2022/01/26 06:03:44;;;;;;;16.52;10.38;;;;;;;;;;4975404;28;20629;-69
2022/01/26 06:06:11;;;;;;;18.00;11.70;;;;;;;;;;4980170;28;20118;-69
2022/01/26 06:08:37;;;;;;;17.88;11.10;;;;;;;;;;4965320;28;20116;-68
2022/01/26 06:11:04;;;;;;;17.75;11.02;;;;;;;;;;4981112;28;20192;-68
2022/01/26 06:13:30;;;;;;;18.20;11.35;;;;;;;;;;4964808;28;20042;-68
2022/01/26 06:15:57;;;;;;;19.77;11.52;;;;;;;;;;4963920;28;20066;-69
2022/01/26 06:18:23;;;;;;;20.77;12.00;;;;;;;;;;4980876;28;20443;-68
2022/01/26 06:20:49;;;;;;;19.63;12.30;;;;;;;;;;4980370;28;20393;-67
2022/01/26 06:23:15;;;;;;;19.83;11.55;;;;;;;;;;4981332;28;20049;-67
2022/01/26 06:25:41;;;;;;;18.95;11.82;;;;;;;;;;4984657;28;20046;-68
2022/01/26 06:28:12;;;;;;;21.38;11.98;;;;;;;;;;4983848;28;20049;-68
2022/01/26 06:30:38;;;;;;;18.80;11.30;;;;;;;;;;4984099;28;20054;-68
2022/01/26 06:33:08;;;;;;;20.55;12.35;;;;;;;;;;4974732;28;20050;-68
2022/01/26 06:35:35;;;;;;;24.77;12.07;;;;;;;;;;4984363;28;20077;-69
2022/01/26 06:38:01;;;;;;;24.98;13.38;;;;;;;;;;4981199;28;20074;-69
2022/01/26 06:40:27;;;;;;;26.77;13.20;;;;;;;;;;4983990;28;20094;-68
2022/01/26 06:42:58;;;;;;;23.88;12.48;;;;;;;;;;4982802;28;20563;-68
2022/01/26 06:45:31;;;;;;;23.02;11.60;;;;;;;;;;4968650;28;20404;-69
2022/01/26 06:50:23;;;;;;;21.60;11.98;;;;;;;;;;4954753;28;20058;-69
2022/01/26 06:52:49;;;;;;;21.98;11.90;;;;;;;;;;4980710;28;20563;-69
2022/01/26 06:55:16;;;;;;;21.63;12.63;;;;;;;;;;4982532;28;20042;-69
2022/01/26 06:57:43;;;;;;;18.55;11.35;;;;;;;;;;4981241;28;20042;-69
2022/01/26 07:00:09;;;;;;;23.58;11.20;;;;;;;;;;4980105;28;20133;-69
2022/01/26 07:02:37;;;;;;;25.80;15.23;;;;;;;;;;4974042;28;20193;-68
2022/01/26 07:05:03;;;;;;;27.23;14.18;;;;;;;;;;4967887;28;20687;-69
2022/01/26 07:07:29;;;;;;;28.20;15.73;;;;;;;;;;4962097;28;20058;-69
2022/01/26 07:09:55;;;;;;;26.38;14.10;;;;;;;;;;4963654;28;20077;-69
2022/01/26 07:12:21;;;;;;;33.45;17.00;;;;;;;;;;4982480;28;20053;-69
2022/01/26 07:22:45;;;;;;;31.25;15.70;;;;;;;;;;4981752;28;20069;-69
2022/01/26 07:25:11;;;;;;;25.20;15.07;;;;;;;;;;4983291;28;20523;-69
2022/01/26 07:27:37;;;;;;;29.35;15.73;;;;;;;;;;4982606;28;20038;-69
2022/01/26 07:30:06;;;;;;;26.05;15.00;;;;;;;;;;4983261;28;20061;-69
2022/01/26 07:32:34;;;;;;;27.80;14.73;;;;;;;;;;4981822;28;20152;-69
2022/01/26 07:35:00;;;;;;;24.02;15.07;;;;;;;;;;4982848;28;20042;-69
2022/01/26 07:37:26;;;;;;;25.50;14.43;;;;;;;;;;4981550;28;20620;-69
2022/01/26 07:40:04;;;;;;;26.13;15.13;;;;;;;;;;4982760;28;20166;-70
2022/01/26 07:42:31;;;;;;;24.77;14.80;;;;;;;;;;4982115;28;20078;-70
2022/01/26 07:44:57;;;;;;;25.45;14.60;;;;;;;;;;4983217;28;20048;-70
2022/01/26 07:47:23;;;;;;;23.42;13.52;;;;;;;;;;4965925;28;20046;-70
2022/01/26 07:49:52;;;;;;;23.27;13.85;;;;;;;;;;4983033;28;20121;-69
2022/01/26 07:52:18;;;;;;;23.15;13.93;;;;;;;;;;4979774;28;20078;-69
2022/01/26 07:54:46;;;;;;;25.60;13.90;;;;;;;;;;4966655;28;20100;-70
2022/01/26 07:57:12;;;;;;;21.23;12.23;;;;;;;;;;4981482;28;20165;-70
2022/01/26 07:59:38;;;;;;;25.42;13.65;;;;;;;;;;4982350;28;20095;-69
2022/01/26 08:02:04;;;;;;;21.08;12.48;;;;;;;;;;4981451;28;20052;-69
2022/01/26 08:04:30;;;;;;;21.92;13.45;;;;;;;;;;4966409;28;20124;-70
2022/01/26 08:06:56;;;;;;;23.10;13.00;;;;;;;;;;4981029;28;20645;-70
2022/01/26 08:09:22;;;;;;;20.88;12.95;;;;;;;;;;4982244;28;20050;-69
2022/01/26 08:11:48;;;;;;;20.83;13.13;;;;;;;;;;4981558;28;20042;-69
2022/01/26 08:14:14;;;;;;;22.77;12.52;;;;;;;;;;4982785;28;20105;-69
2022/01/26 08:16:40;;;;;;;23.88;13.18;;;;;;;;;;4964790;28;20547;-69
2022/01/26 08:19:07;;;;;;;21.98;13.13;;;;;;;;;;4982381;28;20555;-69
2022/01/26 08:21:33;;;;;;;21.15;12.77;;;;;;;;;;4980916;28;20531;-69
2022/01/26 08:24:03;;;;;;;21.65;12.88;;;;;;;;;;4982318;28;20046;-70
2022/01/26 08:26:42;;;;;;;22.85;13.10;;;;;;;;;;4981500;28;20046;-70
2022/01/26 08:29:16;;;;;;;23.30;13.35;;;;;;;;;;4982401;28;20133;-69
2022/01/26 08:31:43;;;;;;;20.63;13.10;;;;;;;;;;4980776;28;20042;-69
2022/01/26 08:34:09;;;;;;;21.33;12.95;;;;;;;;;;4982479;28;20053;-69
2022/01/26 08:36:35;;;;;;;24.73;13.50;;;;;;;;;;4964875;28;20039;-69
2022/01/26 08:39:01;;;;;;;23.33;13.02;;;;;;;;;;4981997;28;20602;-69
2022/01/26 08:41:28;;;;;;;22.23;13.68;;;;;;;;;;4965274;28;20392;-68
2022/01/26 08:43:54;;;;;;;23.20;13.10;;;;;;;;;;4983611;28;20089;-80
2022/01/26 08:46:20;;;;;;;24.38;14.60;;;;;;;;;;4964286;28;20085;-80
2022/01/26 08:48:47;;;;;;;21.05;13.05;;;;;;;;;;4966199;28;20050;-79
2022/01/26 08:51:14;;;;;;;22.60;13.90;;;;;;;;;;4971165;28;20440;-79
2022/01/26 08:53:40;;;;;;;20.88;13.07;;;;;;;;;;4969013;28;20051;-79
2022/01/26 08:56:06;;;;;;;21.23;13.07;;;;;;;;;;4985487;28;20033;-79
2022/01/26 08:58:32;;;;;;;21.08;13.65;;;;;;;;;;4985991;28;20046;-79
2022/01/26 09:00:58;;;;;;;20.48;12.98;;;;;;;;;;4968279;28;20498;-78
2022/01/26 09:03:24;;;;;;;22.55;14.32;;;;;;;;;;4966373;28;20054;-79
2022/01/26 09:05:50;;;;;;;26.58;15.13;;;;;;;;;;4966389;28;20047;-79
2022/01/26 09:08:17;;;;;;;23.17;13.55;;;;;;;;;;4985748;28;20100;-80
2022/01/26 09:10:43;;;;;;;21.10;13.43;;;;;;;;;;4985313;28;20050;-80
2022/01/26 09:13:10;;;;;;;22.50;14.00;;;;;;;;;;4985580;28;20133;-79
2022/01/26 09:15:38;;;;;;;21.20;13.95;;;;;;;;;;4986545;28;20062;-80
2022/01/26 09:18:06;;;;;;;22.48;13.45;;;;;;;;;;4952586;28;20122;-79
2022/01/26 09:20:38;;;;;;;21.38;13.73;;;;;;;;;;4966395;28;20049;-80
2022/01/26 09:23:04;;;;;;;24.88;15.35;;;;;;;;;;4967156;28;20050;-80
2022/01/26 09:25:30;;;;;;;25.10;15.10;;;;;;;;;;4969210;28;20047;-80
2022/01/26 09:27:56;;;;;;;23.75;14.05;;;;;;;;;;4968949;28;20042;-80
2022/01/26 09:30:23;;;;;;;21.30;14.02;;;;;;;;;;4984487;28;20054;-80
2022/01/26 09:32:49;;;;;;;23.63;14.38;;;;;;;;;;4983110;28;20124;-79
2022/01/26 09:35:15;;;;;;;24.25;15.50;;;;;;;;;;4984456;28;20443;-79
2022/01/26 09:37:41;;;;;;;23.85;14.13;;;;;;;;;;4952492;28;20116;-78
2022/01/26 09:40:08;;;;;;;23.90;14.45;;;;;;;;;;4950795;28;20476;-79
2022/01/26 09:42:36;;;;;;;30.35;16.88;;;;;;;;;;4967031;28;20043;-79
2022/01/26 09:45:03;;;;;;;23.15;14.68;;;;;;;;;;4967659;28;20059;-79
2022/01/26 09:47:29;;;;;;;23.38;14.93;;;;;;;;;;4980394;28;20053;-80
2022/01/26 09:49:56;;;;;;;25.45;15.00;;;;;;;;;;4987045;28;20050;-80
2022/01/26 09:52:27;;;;;;;22.95;14.98;;;;;;;;;;4986930;28;20042;-80
2022/01/26 09:54:56;;;;;;;23.20;15.27;;;;;;;;;;4987575;28;20128;-80
2022/01/26 09:57:22;;;;;;;24.40;15.55;;;;;;;;;;4986855;28;20050;-79
2022/01/26 09:59:48;;;;;;;24.92;16.10;;;;;;;;;;4991618;28;20061;-79
2022/01/26 10:02:21;;;;;;;25.50;16.58;;;;;;;;;;4990678;28;20101;-81
2022/01/26 10:04:47;;;;;;;26.02;16.92;;;;;;;;;;4991409;28;20101;-80
2022/01/26 10:09:59;;;;;;;25.85;16.30;;;;;;;;;;4991214;28;20077;-80
2022/01/26 10:18:00;;;;;;;27.40;16.65;;;;;;;;;;4986273;28;20043;-80
2022/01/26 10:20:26;;;;;;;26.02;16.00;;;;;;;;;;4955782;28;21822;-80
2022/01/26 10:22:52;;;;;;;24.58;15.35;;;;;;;;;;4986591;28;20177;-80
2022/01/26 10:25:19;;;;;;;80.80;19.20;;;;;;;;;;4986998;28;20046;-72
2022/01/26 10:27:54;;;;;;;64.78;20.15;;;;;;;;;;4953640;28;20042;-69
2022/01/26 10:30:20;;;;;;;40.90;17.65;;;;;;;;;;4965599;28;20046;-71
2022/01/26 10:32:47;;;;;;;32.85;17.38;;;;;;;;;;4980666;28;20053;-73
2022/01/26 10:35:14;;;;;;;38.53;17.75;;;;;;;;;;4969034;28;20042;-74
2022/01/26 10:37:50;;;;;;;33.75;16.75;;;;;;;;;;4965560;28;20038;-71
2022/01/26 10:40:20;;;;;;;28.50;16.65;;;;;;;;;;4984364;28;20042;-71
2022/01/26 10:42:56;;;;;;;28.88;16.58;;;;;;;;;;4983797;28;20061;-71
2022/01/26 10:45:34;;;;;;;31.45;17.73;;;;;;;;;;4984686;28;20614;-70
2022/01/26 10:48:11;;;;;;;28.48;16.52;;;;;;;;;;4983575;28;20077;-71
2022/01/26 10:53:06;;;;;;;29.58;16.75;;;;;;;;;;4984761;28;20046;-70
2022/01/26 10:55:33;;;;;;;32.50;17.23;;;;;;;;;;4984170;28;20034;-71
2022/01/26 10:57:59;;;;;;;27.15;16.42;;;;;;;;;;4967378;28;20408;-69
2022/01/26 11:00:25;;;;;;;27.48;16.45;;;;;;;;;;4967830;28;20044;-72
2022/01/26 11:02:57;;;;;;;26.50;13.27;;;;;;;;;;4982815;28;20181;-72
2022/01/26 11:05:23;;;;;;;29.13;13.30;;;;;;;;;;4984093;28;20054;-71
2022/01/26 11:07:49;;;;;;;18.95;12.65;;;;;;;;;;4982576;28;20634;-71
2022/01/26 11:10:17;;;;;;;21.48;12.40;;;;;;;;;;4983469;28;20167;-72
2022/01/26 11:12:43;;;;;;;23.40;12.60;;;;;;;;;;4983051;28;20061;-73
2022/01/26 11:15:11;;;;;;;20.45;12.52;;;;;;;;;;4967425;28;20050;-72
2022/01/26 11:17:38;;;;;;;19.33;12.43;;;;;;;;;;4966327;28;20133;-71
2022/01/26 11:20:17;;;;;;;21.23;12.73;;;;;;;;;;4983670;28;20037;-72
2022/01/26 11:23:00;;;;;;;18.85;11.68;;;;;;;;;;4966638;28;20061;-75
2022/01/26 11:25:42;;;;;;;32.38;14.35;;;;;;;;;;4983804;28;20074;-74
2022/01/26 11:28:19;;;;;;;21.70;12.95;;;;;;;;;;4967051;28;20457;-74
2022/01/26 11:30:45;;;;;;;22.23;12.73;;;;;;;;;;4983558;28;20061;-74
2022/01/26 11:33:16;;;;;;;22.70;13.25;;;;;;;;;;4982781;28;20038;-73
2022/01/26 11:35:45;;;;;;;23.02;12.68;;;;;;;;;;4967509;28;20099;-72
2022/01/26 11:39:05;;;;;;;22.48;13.02;;;;;;;;;;4981156;28;20065;-72
2022/01/26 11:47:03;;;;;;;21.92;12.85;;;;;;;;;;4973587;28;20042;-74
2022/01/26 11:49:34;;;;;;;20.77;12.07;;;;;;;;;;4967216;28;20042;-73
2022/01/26 11:52:00;;;;;;;20.98;11.82;;;;;;;;;;4982306;28;20495;-73
2022/01/26 11:54:40;;;;;;;20.95;13.25;;;;;;;;;;4983103;28;20034;-72
2022/01/26 11:57:14;;;;;;;20.70;12.77;;;;;;;;;;4966159;28;20097;-73
2022/01/26 11:59:47;;;;;;;22.25;13.00;;;;;;;;;;4983379;28;20042;-73
2022/01/26 12:02:37;;;;;;;23.52;13.00;;;;;;;;;;4982383;28;20531;-72
2022/01/26 12:05:06;;;;;;;22.92;14.18;;;;;;;;;;4983152;28;20058;-73
2022/01/26 12:07:32;;;;;;;19.25;12.05;;;;;;;;;;4981863;28;20072;-73
2022/01/26 12:10:00;;;;;;;21.15;13.18;;;;;;;;;;4967617;28;20535;-73
2022/01/26 12:12:26;;;;;;;18.35;11.75;;;;;;;;;;4982126;28;20670;-73
2022/01/26 12:15:19;;;;;;;21.08;12.80;;;;;;;;;;4982529;28;20054;-73
2022/01/26 12:35:02;;;;;;;23.88;13.13;;;;;;;;;;4945583;28;20043;-72
2022/01/26 12:45:15;;;;;;;19.83;12.18;;;;;;;;;;4983021;28;20088;-72
2022/01/26 12:47:42;;;;;;;25.15;12.82;;;;;;;;;;4981399;28;20050;-73
2022/01/26 12:50:08;;;;;;;18.45;11.55;;;;;;;;;;4982556;28;20069;-73
2022/01/26 12:52:34;;;;;;;20.50;12.07;;;;;;;;;;4964461;28;20050;-72
2022/01/26 12:55:00;;;;;;;20.10;12.70;;;;;;;;;;4982575;28;20702;-72
2022/01/26 12:57:26;;;;;;;22.88;12.57;;;;;;;;;;4981400;28;20066;-72
2022/01/26 12:59:59;;;;;;;18.58;12.25;;;;;;;;;;4982933;28;20082;-72
2022/01/26 13:02:25;;;;;;;21.25;12.65;;;;;;;;;;4981355;28;20122;-72
2022/01/26 13:04:59;;;;;;;20.10;12.73;;;;;;;;;;4982196;28;20038;-73
2022/01/26 13:07:25;;;;;;;21.33;12.50;;;;;;;;;;4980862;28;20077;-72
2022/01/26 13:09:50;;;;;;;18.52;11.80;;;;;;;;;;4982441;28;20520;-73
2022/01/26 13:12:19;;;;;;;19.45;11.73;;;;;;;;;;4981415;28;20120;-73
2022/01/26 13:14:56;;;;;;;22.75;12.65;;;;;;;;;;4965787;28;20117;-73
2022/01/26 13:17:36;;;;;;;20.33;11.43;;;;;;;;;;4980773;28;20076;-72
2022/01/26 13:25:55;;;;;;;18.88;11.77;;;;;;;;;;4982110;28;20114;-72
2022/01/26 13:28:33;;;;;;;23.30;12.50;;;;;;;;;;4982543;28;20055;-72
2022/01/26 13:31:21;;;;;;;17.50;11.40;;;;;;;;;;4981593;28;20149;-73
2022/01/26 13:37:36;;;;;;;18.67;11.77;;;;;;;;;;4985013;28;20050;-73
2022/01/26 13:39:41;;;;;;;20.92;12.35;;;;;;;;;;4978776;28;20054;-72
2022/01/26 13:44:53;;;;;;;20.15;12.07;;;;;;;;;;4986283;28;20571;-72
2022/01/26 13:50:11;;;;;;;21.85;11.68;;;;;;;;;;4986091;28;20042;-73
2022/01/26 13:58:04;;;;;;;18.10;10.45;;;;;;;;;;4985070;28;20046;-73
2022/01/26 14:00:37;;;;;;;20.67;11.60;;;;;;;;;;4985779;28;20038;-73
2022/01/26 14:03:05;;;;;;;17.92;11.10;;;;;;;;;;4985101;28;20049;-72
2022/01/26 14:05:31;;;;;;;20.13;11.27;;;;;;;;;;4985935;28;20444;-73
2022/01/26 14:07:58;;;;;;;19.08;10.65;;;;;;;;;;4985174;28;20057;-72
2022/01/26 14:10:24;;;;;;;18.58;10.82;;;;;;;;;;4969437;28;20074;-72
2022/01/26 14:12:50;;;;;;;18.38;10.63;;;;;;;;;;4983982;28;20050;-73
2022/01/26 14:15:26;;;;;;;16.02;9.93;;;;;;;;;;4985332;28;20100;-72
2022/01/26 14:25:43;;;;;;;16.15;10.15;;;;;;;;;;4985349;28;20054;-73
2022/01/26 14:28:11;;;;;;;18.38;10.15;;;;;;;;;;4984269;28;20073;-72
2022/01/26 14:30:49;;;;;;;18.08;10.68;;;;;;;;;;4985026;28;20046;-73
2022/01/26 14:35:55;;;;;;;17.60;10.02;;;;;;;;;;4985184;28;20046;-72
2022/01/26 14:54:45;;;;;;;19.10;9.60;;;;;;;;;;4984348;28;19965;-72
2022/01/26 15:00:28;;;;;;;15.93;10.05;;;;;;;;;;4984040;28;20077;-72
2022/01/26 15:19:14;;;;;;;19.20;9.93;;;;;;;;;;4983385;28;19918;-72
2022/01/26 15:35:39;;;;;;;15.50;8.90;;;;;;;;;;4983351;28;20479;-72
2022/01/26 15:43:36;;;;;;;15.77;8.90;;;;;;;;;;4983910;28;20082;-73
2022/01/26 15:48:54;;;;;;;17.27;9.35;;;;;;;;;;4983051;28;20050;-72
2022/01/26 16:04:46;;;;;;;16.88;8.77;;;;;;;;;;4982753;28;20646;-72
2022/01/26 16:07:19;;;;;;;15.37;8.53;;;;;;;;;;4981664;28;20613;-72
2022/01/26 16:21:04;;;;;;;;;;;;;;;;;;4982956;28;20062;-72
2022/01/26 17:02:10;;;;;;;15.57;8.85;;;;;;;;;;4965107;28;20377;-72
2022/01/26 17:37:46;;;;;;;16.35;9.07;;;;;;;;;;4981194;28;20141;-71
2022/01/26 18:05:39;;;;;;;18.48;9.75;;;;;;;;;;4981028;28;20057;-72
2022/01/26 18:13:43;;;;;;;16.73;9.73;;;;;;;;;;4980003;28;20063;-72
2022/01/26 18:16:25;;;;;;;15.52;9.70;;;;;;;;;;4976220;28;20070;-73
2022/01/26 18:46:20;;;;;;;15.63;9.35;;;;;;;;;;4982230;28;19921;-74
2022/01/26 18:46:47;;;;;;;14.95;9.05;;;;;;;;;;4983723;28;20504;-75
2022/01/26 18:49:12;;;;;;;16.80;8.70;;;;;;;;;;4984740;28;20365;-75
2022/01/26 18:51:43;;;;;;;16.23;9.00;;;;;;;;;;4983109;28;20104;-75
2022/01/26 18:54:10;;;;;;;15.10;8.95;;;;;;;;;;4984860;28;20604;-74
2022/01/26 18:56:36;;;;;;;18.08;9.18;;;;;;;;;;4983724;28;20088;-74
2022/01/26 18:59:04;;;;;;;14.15;8.73;;;;;;;;;;4984987;28;20690;-76
2022/01/26 19:01:30;;;;;;;14.98;8.27;;;;;;;;;;4983176;28;20034;-75
2022/01/26 19:03:56;;;;;;;17.00;8.80;;;;;;;;;;4984591;28;20120;-75
2022/01/26 19:06:22;;;;;;;17.48;9.40;;;;;;;;;;4983601;28;20039;-75
2022/01/26 19:08:48;;;;;;;14.02;8.30;;;;;;;;;;4984114;28;20654;-76
2022/01/26 19:11:15;;;;;;;13.63;8.05;;;;;;;;;;4966957;28;20034;-74
2022/01/26 19:13:45;;;;;;;14.93;8.55;;;;;;;;;;4965577;28;20504;-74
2022/01/26 19:16:27;;;;;;;13.52;8.77;;;;;;;;;;4951584;28;20057;-76
2022/01/26 19:19:04;;;;;;;12.73;7.85;;;;;;;;;;4984125;28;20105;-76
2022/01/26 19:26:50;;;;;;;18.27;8.50;;;;;;;;;;4979412;28;20084;-76
2022/01/26 19:32:21;;;;;;;12.80;7.78;;;;;;;;;;4982836;28;20050;-75
2022/01/26 19:51:05;;;;;;;13.73;7.13;;;;;;;;;;4964247;28;20054;-70
2022/01/26 19:53:32;;;;;;;13.88;7.05;;;;;;;;;;4948609;28;20046;-71
2022/01/26 19:55:58;;;;;;;14.77;7.40;;;;;;;;;;4981632;28;20157;-71
2022/01/26 19:58:25;;;;;;;13.88;7.15;;;;;;;;;;4963866;28;20066;-70
2022/01/26 20:00:52;;;;;;;14.25;7.53;;;;;;;;;;4982050;28;20154;-70
2022/01/26 20:03:18;;;;;;;14.23;7.18;;;;;;;;;;4956737;28;20487;-71
2022/01/26 20:05:44;;;;;;;14.43;6.65;;;;;;;;;;4925929;28;20054;-70
2022/01/26 20:08:28;;;;;;;12.30;6.68;;;;;;;;;;4955255;28;20243;-71
2022/01/26 20:10:59;;;;;;;11.57;6.82;;;;;;;;;;4979579;28;20077;-70
2022/01/26 20:13:28;;;;;;;15.75;7.10;;;;;;;;;;4981177;28;20500;-70
2022/01/26 20:15:55;;;;;;;16.08;7.15;;;;;;;;;;4980667;28;20058;-70
2022/01/26 20:18:21;;;;;;;10.55;5.85;;;;;;;;;;4978797;28;20524;-70
2022/01/26 20:20:47;;;;;;;10.32;6.18;;;;;;;;;;4980991;28;20068;-70
2022/01/26 20:23:15;;;;;;;11.25;6.22;;;;;;;;;;4979770;28;20678;-71
2022/01/26 20:25:42;;;;;;;13.68;6.38;;;;;;;;;;4982374;28;20558;-70
2022/01/26 20:28:10;;;;;;;13.88;6.90;;;;;;;;;;4961426;28;20702;-70
2022/01/26 20:30:41;;;;;;;10.95;6.00;;;;;;;;;;4970446;28;20065;-71
2022/01/26 20:33:08;;;;;;;12.27;6.35;;;;;;;;;;4979889;28;20081;-71
2022/01/26 20:35:34;;;;;;;10.65;5.78;;;;;;;;;;4981284;28;20097;-72
2022/01/26 20:38:00;;;;;;;11.75;6.10;;;;;;;;;;4941653;28;20042;-71
2022/01/26 20:40:25;;;;;;;13.35;6.28;;;;;;;;;;4957247;28;20083;-71
2022/01/26 20:42:51;;;;;;;9.73;5.85;;;;;;;;;;4978319;28;20046;-70
2022/01/26 20:45:21;;;;;;;12.75;6.05;;;;;;;;;;4981975;28;20595;-72
2022/01/26 20:47:48;;;;;;;9.60;5.40;;;;;;;;;;4981142;28;20105;-71
2022/01/26 20:50:14;;;;;;;10.70;6.18;;;;;;;;;;4981633;28;20145;-70
2022/01/26 20:52:42;;;;;;;10.27;5.95;;;;;;;;;;4980150;28;20070;-71
2022/01/26 20:55:08;;;;;;;11.98;6.70;;;;;;;;;;4981661;28;20055;-72
2022/01/26 20:57:34;;;;;;;11.15;5.78;;;;;;;;;;4964565;28;20119;-71
2022/01/26 21:00:00;;;;;;;11.18;5.63;;;;;;;;;;4981409;28;20064;-71
2022/01/26 21:02:26;;;;;;;11.75;5.82;;;;;;;;;;4963215;28;20053;-71
2022/01/26 21:04:52;;;;;;;12.90;6.35;;;;;;;;;;4981330;28;20062;-70
2022/01/26 21:07:18;;;;;;;11.63;5.97;;;;;;;;;;4980828;28;20046;-70
2022/01/26 21:09:44;;;;;;;12.27;6.35;;;;;;;;;;4981237;28;20054;-71
2022/01/26 21:12:10;;;;;;;12.23;5.90;;;;;;;;;;4964458;28;20428;-70
2022/01/26 21:14:36;;;;;;;11.75;6.47;;;;;;;;;;4981533;28;20050;-71
2022/01/26 21:17:04;;;;;;;11.38;5.97;;;;;;;;;;4966872;28;20723;-70